Time;durP1;ratioP1;P1;durP2;ratioP2;P2;SDS_P1;SDS_P2;PMS_P1;PMS_P2;Temp;Humidity;BMP_temperature;BMP_pressure;BME280_temperature;BME280_humidity;BME280_pressure;Samples;Min_cycle;Max_cycle;Signal;HPM_P1;HPM_P2
2021/03/06 00:00:56;;;;;;;37.75;26.65;;;;;;;11.55;61.79;100975.38;4966887;28;20062;-64
2021/03/06 00:03:24;;;;;;;38.08;26.70;;;;;;;11.76;61.00;100980.59;4969987;28;20042;-64
2021/03/06 00:05:53;;;;;;;43.92;25.08;;;;;;;11.57;62.19;100977.09;4967962;28;20046;-64
2021/03/06 00:08:23;;;;;;;45.40;26.77;;;;;;;11.52;62.54;100985.97;4966639;28;20852;-64
2021/03/06 00:10:51;;;;;;;52.05;27.38;;;;;;;11.51;62.35;100984.28;4968602;28;20054;-65
2021/03/06 00:13:18;;;;;;;42.00;26.15;;;;;;;11.72;61.66;100987.75;4967354;28;20035;-62
2021/03/06 00:15:45;;;;;;;45.65;26.35;;;;;;;11.72;61.62;100990.34;4966557;28;20039;-64
2021/03/06 00:18:12;;;;;;;38.80;24.77;;;;;;;11.70;61.56;100999.16;4966279;28;20050;-64
2021/03/06 00:20:38;;;;;;;36.60;26.00;;;;;;;11.55;62.36;101011.94;4969669;28;20053;-64
2021/03/06 00:23:05;;;;;;;37.92;26.10;;;;;;;11.48;62.95;101013.13;4968996;28;20047;-64
2021/03/06 00:25:32;;;;;;;40.40;25.80;;;;;;;11.58;62.82;101018.81;4966819;28;20050;-64
2021/03/06 00:27:58;;;;;;;40.78;26.65;;;;;;;11.62;62.96;101017.78;4966942;28;20564;-64
2021/03/06 00:30:25;;;;;;;42.95;28.15;;;;;;;11.63;63.33;101021.22;4967297;28;20437;-63
2021/03/06 00:32:52;;;;;;;38.80;26.40;;;;;;;11.55;63.68;101030.22;4966284;28;20047;-64
2021/03/06 00:35:19;;;;;;;40.80;26.52;;;;;;;11.57;64.05;101038.00;4967195;28;20409;-62
2021/03/06 00:37:45;;;;;;;39.17;26.92;;;;;;;11.68;63.56;101048.00;4965928;28;20039;-62
2021/03/06 00:40:12;;;;;;;45.05;27.48;;;;;;;11.53;64.57;101037.28;4968318;28;20042;-63
2021/03/06 00:42:39;;;;;;;41.80;27.80;;;;;;;11.43;64.61;101038.56;4966723;28;20035;-63
2021/03/06 00:45:07;;;;;;;32.15;25.08;;;;;;;11.46;65.07;101041.06;4965660;28;20062;-63
2021/03/06 00:47:34;;;;;;;38.33;26.20;;;;;;;11.34;65.38;101044.16;4967269;28;20058;-61
2021/03/06 00:50:12;;;;;;;41.35;27.00;;;;;;;11.07;66.62;101045.25;4966250;28;20387;-63
2021/03/06 00:52:40;;;;;;;36.53;25.65;;;;;;;11.28;66.41;101045.25;4965410;28;20035;-64
2021/03/06 00:55:09;;;;;;;42.17;28.00;;;;;;;10.89;67.65;101052.03;4965988;28;20065;-64
2021/03/06 00:57:36;;;;;;;40.75;27.55;;;;;;;10.89;67.86;101054.66;4965594;28;20039;-63
2021/03/06 01:00:05;;;;;;;35.25;25.92;;;;;;;11.16;67.24;101056.19;4981381;28;20046;-64
2021/03/06 01:02:33;;;;;;;35.60;27.63;;;;;;;10.91;68.22;101058.88;4965423;28;20038;-63
2021/03/06 01:05:03;;;;;;;40.30;27.65;;;;;;;10.66;69.50;101064.19;4966092;28;20041;-64
2021/03/06 01:07:29;;;;;;;44.47;29.92;;;;;;;10.74;69.48;101066.50;4967110;28;20393;-63
2021/03/06 01:09:56;;;;;;;37.88;29.30;;;;;;;10.62;69.96;101064.38;4965380;28;20042;-63
2021/03/06 01:12:22;;;;;;;39.05;27.02;;;;;;;10.83;69.26;101074.00;4966505;28;20450;-65
2021/03/06 01:14:49;;;;;;;39.20;28.63;;;;;;;10.85;69.53;101071.31;4965820;28;20803;-64
2021/03/06 01:17:15;;;;;;;54.60;30.10;;;;;;;10.96;69.37;101075.22;4967718;28;20121;-64
2021/03/06 01:19:42;;;;;;;40.80;28.10;;;;;;;10.82;70.02;101082.72;4967456;28;20070;-64
2021/03/06 01:22:08;;;;;;;41.83;29.58;;;;;;;10.96;69.38;101093.47;4966496;28;20090;-64
2021/03/06 01:24:36;;;;;;;41.58;27.83;;;;;;;11.03;69.01;101096.72;4966613;28;20046;-63
2021/03/06 01:27:03;;;;;;;40.88;28.67;;;;;;;10.91;69.72;101092.78;4965687;28;20047;-63
2021/03/06 01:29:29;;;;;;;38.25;29.23;;;;;;;11.00;69.39;101095.06;4968063;28;20074;-65
2021/03/06 01:31:56;;;;;;;46.28;32.10;;;;;;;10.94;69.33;101102.28;4969797;28;20057;-63
2021/03/06 01:34:23;;;;;;;43.10;31.30;;;;;;;10.93;69.27;101095.38;4971443;28;20074;-64
2021/03/06 01:36:49;;;;;;;44.90;30.83;;;;;;;10.93;69.55;101111.88;4975862;28;20137;-64
2021/03/06 01:39:16;;;;;;;39.63;29.58;;;;;;;10.74;70.04;101100.41;4976717;28;20118;-64
2021/03/06 01:41:42;;;;;;;45.67;29.85;;;;;;;10.60;70.59;101094.84;4976398;28;20129;-64
2021/03/06 01:44:10;;;;;;;41.28;28.30;;;;;;;10.64;70.30;101104.25;4975817;28;20101;-64
2021/03/06 01:46:37;;;;;;;43.42;28.52;;;;;;;10.88;69.41;101098.16;4976946;28;20082;-63
2021/03/06 01:49:04;;;;;;;45.50;29.25;;;;;;;10.76;70.30;101101.22;4973649;28;20440;-63
2021/03/06 01:51:31;;;;;;;37.10;29.02;;;;;;;10.78;70.13;101115.03;4976131;28;20042;-63
2021/03/06 01:53:58;;;;;;;39.55;30.38;;;;;;;10.71;70.79;101110.97;4975782;28;20060;-64
2021/03/06 01:56:24;;;;;;;46.08;31.30;;;;;;;10.74;70.46;101114.28;4973715;28;20067;-63
2021/03/06 01:58:51;;;;;;;44.17;29.05;;;;;;;10.96;69.91;101108.28;4975811;28;20039;-64
2021/03/06 02:01:18;;;;;;;49.95;32.03;;;;;;;10.63;71.59;101113.84;4976283;28;20089;-64
2021/03/06 02:03:45;;;;;;;51.35;31.38;;;;;;;10.78;71.31;101116.81;4973326;28;20038;-63
2021/03/06 02:06:17;;;;;;;45.42;30.35;;;;;;;10.61;72.54;101120.03;4975565;28;20050;-64
2021/03/06 02:08:45;;;;;;;44.83;30.98;;;;;;;10.75;71.75;101117.75;4976081;28;20097;-63
2021/03/06 02:11:21;;;;;;;35.30;26.08;;;;;;;10.62;72.47;101117.34;4975532;28;20078;-64
2021/03/06 02:13:58;;;;;;;32.42;24.23;;;;;;;10.56;72.36;101121.94;4973319;28;20130;-63
2021/03/06 02:16:37;;;;;;;21.80;14.95;;;;;;;10.54;71.62;101123.75;4975596;28;20051;-63
2021/03/06 02:19:31;;;;;;;22.42;10.70;;;;;;;10.56;69.80;101132.38;4975936;28;20049;-64
2021/03/06 02:22:21;;;;;;;11.85;7.45;;;;;;;10.25;70.03;101132.59;4975057;28;20043;-64
2021/03/06 02:25:21;;;;;;;15.85;8.43;;;;;;;10.36;69.56;101138.28;4972585;28;20050;-63
2021/03/06 02:27:53;;;;;;;12.35;6.57;;;;;;;10.21;69.66;101147.44;4972810;28;20453;-63
2021/03/06 02:30:22;;;;;;;14.63;7.68;;;;;;;10.44;68.23;101163.19;4975634;28;20461;-63
2021/03/06 02:32:51;;;;;;;13.02;4.63;;;;;;;10.06;68.55;101159.22;4975524;28;20047;-63
2021/03/06 02:35:26;;;;;;;14.50;5.07;;;;;;;10.03;68.71;101169.78;4975103;28;20133;-63
2021/03/06 02:38:00;;;;;;;10.88;3.97;;;;;;;9.84;69.17;101187.72;4975586;28;20061;-64
2021/03/06 02:40:29;;;;;;;8.48;4.47;;;;;;;9.71;70.10;101166.44;4975542;28;20043;-63
2021/03/06 02:42:57;;;;;;;9.25;4.75;;;;;;;9.83;69.91;101172.16;4974014;28;20043;-63
2021/03/06 02:45:25;;;;;;;16.17;6.28;;;;;;;9.95;69.34;101175.22;4975600;28;20047;-63
2021/03/06 02:47:52;;;;;;;6.95;4.10;;;;;;;9.87;69.92;101179.84;4975280;28;20097;-63
2021/03/06 02:50:19;;;;;;;14.40;4.25;;;;;;;9.83;69.94;101178.22;4975096;28;20039;-63
2021/03/06 02:52:45;;;;;;;7.45;4.88;;;;;;;9.86;69.86;101183.34;4974431;28;20118;-63
2021/03/06 02:55:12;;;;;;;9.40;2.67;;;;;;;9.70;71.10;101169.13;4974893;28;20139;-65
2021/03/06 02:58:17;;;;;;;10.40;4.03;;;;;;;9.66;71.36;101180.50;4975165;28;20127;-65
2021/03/06 03:01:22;;;;;;;7.90;4.22;;;;;;;9.60;71.50;101183.31;4971026;28;20059;-65
2021/03/06 03:04:26;;;;;;;14.40;4.28;;;;;;;9.67;71.44;101188.28;4961273;28;20078;-65
2021/03/06 03:07:00;;;;;;;11.45;4.43;;;;;;;9.78;71.24;101195.75;4972728;28;20038;-64
2021/03/06 03:09:30;;;;;;;12.20;3.70;;;;;;;9.81;71.14;101194.81;4974361;28;20049;-64
2021/03/06 03:12:07;;;;;;;6.50;3.80;;;;;;;9.84;71.23;101197.28;4974906;28;20047;-64
2021/03/06 03:14:44;;;;;;;7.45;3.97;;;;;;;9.72;72.34;101190.72;4974413;28;20070;-64
2021/03/06 03:17:14;;;;;;;11.57;4.28;;;;;;;9.82;71.48;101196.50;4975265;28;20580;-64
2021/03/06 03:20:04;;;;;;;6.60;3.50;;;;;;;9.67;72.56;101208.25;4974690;28;20129;-64
2021/03/06 03:22:35;;;;;;;9.30;3.92;;;;;;;9.58;72.87;101204.16;4974888;28;20077;-64
2021/03/06 03:25:06;;;;;;;14.85;4.45;;;;;;;9.46;73.80;101207.16;4973645;28;20051;-64
2021/03/06 03:27:37;;;;;;;12.70;5.05;;;;;;;9.65;73.34;101204.84;4974508;28;20047;-63
2021/03/06 03:30:16;;;;;;;12.32;3.97;;;;;;;9.70;72.96;101219.44;4990044;28;20094;-64
2021/03/06 03:32:44;;;;;;;10.63;5.32;;;;;;;9.71;73.19;101215.06;4974544;28;20058;-65
2021/03/06 03:35:14;;;;;;;11.57;3.60;;;;;;;9.60;73.66;101219.75;4974192;28;20035;-64
2021/03/06 03:37:42;;;;;;;9.30;4.50;;;;;;;9.28;75.31;101218.97;4974960;28;20070;-65
2021/03/06 03:40:13;;;;;;;10.57;3.65;;;;;;;9.45;74.76;101229.72;4974973;28;20035;-65
2021/03/06 03:42:40;;;;;;;19.20;4.10;;;;;;;9.51;74.88;101222.63;4974125;28;20130;-64
2021/03/06 03:45:09;;;;;;;15.95;5.65;;;;;;;9.32;75.32;101237.91;4974470;28;20046;-64
2021/03/06 03:47:38;;;;;;;14.35;5.03;;;;;;;9.26;74.83;101233.75;4974663;28;20053;-64
2021/03/06 03:50:07;;;;;;;10.95;3.38;;;;;;;9.19;74.14;101237.44;4974550;28;20054;-64
2021/03/06 03:52:39;;;;;;;14.52;5.22;;;;;;;9.26;73.74;101253.72;4973475;28;20089;-65
2021/03/06 03:55:07;;;;;;;11.43;5.53;;;;;;;9.34;73.95;101251.75;4973722;28;20106;-64
2021/03/06 03:57:35;;;;;;;7.45;3.30;;;;;;;9.03;75.37;101256.97;4972954;28;20045;-64
2021/03/06 04:00:07;;;;;;;6.78;3.80;;;;;;;9.27;75.56;101265.81;4974619;28;20074;-64
2021/03/06 04:02:35;;;;;;;8.25;3.25;;;;;;;8.96;76.59;101278.84;4970474;28;20043;-63
2021/03/06 04:05:07;;;;;;;7.15;2.90;;;;;;;8.95;77.33;101279.72;4973913;28;20046;-64
2021/03/06 04:07:47;;;;;;;7.50;3.33;;;;;;;8.74;76.34;101284.59;4974445;28;20046;-63
2021/03/06 04:10:20;;;;;;;12.50;3.05;;;;;;;8.82;76.46;101293.03;4974323;28;20105;-64
2021/03/06 04:12:47;;;;;;;11.25;3.42;;;;;;;8.37;78.18;101288.13;4974329;28;20118;-64
2021/03/06 04:15:15;;;;;;;12.52;4.75;;;;;;;8.49;77.95;101296.50;4974004;28;20445;-64
2021/03/06 04:17:42;;;;;;;11.70;3.58;;;;;;;8.59;76.36;101305.78;4974183;28;20505;-64
2021/03/06 04:20:11;;;;;;;16.40;3.60;;;;;;;8.18;77.59;101307.59;4973969;28;20506;-64
2021/03/06 04:22:38;;;;;;;9.43;2.90;;;;;;;8.20;78.18;101303.19;4974119;28;20041;-64
2021/03/06 04:25:06;;;;;;;10.05;2.75;;;;;;;8.34;76.31;101303.75;4973657;28;20108;-64
2021/03/06 04:27:34;;;;;;;5.47;2.97;;;;;;;8.30;75.95;101327.22;4973895;28;20049;-65
2021/03/06 04:30:01;;;;;;;9.40;3.78;;;;;;;8.19;76.22;101319.69;4974221;28;20047;-65
2021/03/06 04:32:28;;;;;;;12.70;3.97;;;;;;;8.21;75.79;101349.09;4973568;28;20046;-64
2021/03/06 04:34:54;;;;;;;6.10;2.53;;;;;;;8.24;75.77;101333.41;4973754;28;20043;-65
2021/03/06 04:37:21;;;;;;;8.65;2.60;;;;;;;8.27;75.85;101341.16;4973901;28;20505;-64
2021/03/06 04:39:47;;;;;;;13.57;3.85;;;;;;;8.46;75.40;101364.13;4973394;28;20109;-64
2021/03/06 04:42:14;;;;;;;14.82;5.13;;;;;;;8.29;76.16;101348.91;4968238;28;20798;-64
2021/03/06 04:44:40;;;;;;;9.18;2.80;;;;;;;8.08;77.19;101365.81;4973335;28;20045;-64
2021/03/06 04:47:06;;;;;;;7.45;2.45;;;;;;;8.07;78.07;101364.97;4973574;28;20054;-64
2021/03/06 04:49:33;;;;;;;10.23;4.30;;;;;;;8.11;78.75;101360.56;4973599;28;20035;-63
2021/03/06 04:51:59;;;;;;;10.93;3.05;;;;;;;8.02;78.73;101363.34;4973532;28;20075;-64
2021/03/06 04:54:27;;;;;;;9.55;2.80;;;;;;;8.35;78.13;101378.19;4973563;28;20046;-64
2021/03/06 04:57:11;;;;;;;8.63;4.07;;;;;;;8.08;79.62;101374.47;4968732;28;20066;-65
2021/03/06 04:59:37;;;;;;;10.32;5.32;;;;;;;8.09;79.11;101381.34;4973581;28;20492;-64
2021/03/06 05:02:04;;;;;;;6.95;3.10;;;;;;;7.99;80.04;101381.59;4973878;28;20039;-64
2021/03/06 05:04:31;;;;;;;18.08;5.50;;;;;;;8.06;80.13;101383.19;4973111;28;20414;-64
2021/03/06 05:06:58;;;;;;;17.10;4.45;;;;;;;8.13;80.91;101401.19;4973167;28;20051;-64
2021/03/06 05:09:24;;;;;;;14.30;5.32;;;;;;;7.98;79.25;101387.69;4972954;28;20053;-64
2021/03/06 05:11:52;;;;;;;13.48;3.22;;;;;;;7.85;81.04;101397.47;4973846;28;20043;-65
2021/03/06 05:14:18;;;;;;;10.15;4.13;;;;;;;7.99;80.22;101394.56;4973260;28;20105;-64
2021/03/06 05:16:45;;;;;;;10.48;4.25;;;;;;;7.84;79.08;101396.63;4973252;28;20035;-64
2021/03/06 05:19:12;;;;;;;6.82;2.88;;;;;;;7.80;80.22;101402.75;4973199;28;20043;-65
2021/03/06 05:21:38;;;;;;;8.27;3.47;;;;;;;8.00;78.71;101404.09;4973359;28;20093;-64
2021/03/06 05:24:06;;;;;;;9.13;2.95;;;;;;;8.01;78.28;101405.81;4973157;28;20049;-64
2021/03/06 05:26:33;;;;;;;4.85;3.30;;;;;;;7.99;78.52;101411.03;4970355;28;20398;-64
2021/03/06 05:29:00;;;;;;;11.45;3.28;;;;;;;7.71;78.50;101415.06;4966648;28;20058;-64
2021/03/06 05:31:27;;;;;;;6.85;3.28;;;;;;;7.63;78.22;101407.44;4966068;28;20491;-65
2021/03/06 05:33:54;;;;;;;8.30;3.58;;;;;;;7.70;78.07;101419.38;4966935;28;20130;-64
2021/03/06 05:36:21;;;;;;;11.50;3.70;;;;;;;7.74;77.29;101418.44;4966557;28;20105;-65
2021/03/06 05:38:47;;;;;;;5.15;2.65;;;;;;;7.83;76.96;101420.03;4967410;28;20122;-64
2021/03/06 05:41:14;;;;;;;7.28;3.17;;;;;;;7.85;76.74;101424.28;4966631;28;20057;-64
2021/03/06 05:43:41;;;;;;;11.57;3.53;;;;;;;8.15;75.63;101432.34;4966771;28;20055;-63
2021/03/06 05:46:07;;;;;;;8.25;2.63;;;;;;;8.14;75.47;101431.47;4966495;28;20035;-64
2021/03/06 05:48:34;;;;;;;9.95;3.30;;;;;;;8.13;75.29;101439.28;4966585;28;20054;-64
2021/03/06 05:51:02;;;;;;;12.23;4.18;;;;;;;8.09;74.99;101443.69;4966487;28;20047;-64
2021/03/06 05:53:30;;;;;;;9.77;2.95;;;;;;;8.03;74.06;101446.41;4967040;28;20133;-63
2021/03/06 05:55:58;;;;;;;6.05;3.00;;;;;;;7.80;76.09;101444.28;4966665;28;20339;-64
2021/03/06 05:58:30;;;;;;;10.60;4.15;;;;;;;7.81;75.01;101448.59;4965800;28;20047;-64
2021/03/06 06:00:59;;;;;;;5.45;2.47;;;;;;;7.80;75.48;101456.41;4966748;28;20043;-64
2021/03/06 06:03:26;;;;;;;9.98;3.05;;;;;;;8.07;74.29;101460.19;4965125;28;20074;-63
2021/03/06 06:05:53;;;;;;;6.85;3.00;;;;;;;8.00;74.93;101474.22;4966744;28;20054;-64
2021/03/06 06:08:20;;;;;;;8.57;2.88;;;;;;;7.94;74.72;101474.34;4966739;28;20066;-64
2021/03/06 06:10:47;;;;;;;15.60;5.07;;;;;;;7.84;74.87;101484.03;4966669;28;20035;-64
2021/03/06 06:13:14;;;;;;;14.23;3.30;;;;;;;7.74;75.34;101478.16;4966689;28;20068;-64
2021/03/06 06:15:41;;;;;;;10.25;3.83;;;;;;;7.89;74.80;101487.41;4966806;28;20046;-64
2021/03/06 06:18:07;;;;;;;5.57;3.15;;;;;;;7.80;74.82;101498.81;4968548;28;20058;-64
2021/03/06 06:20:38;;;;;;;7.28;2.97;;;;;;;7.65;75.67;101493.88;4973971;28;20445;-64
2021/03/06 06:23:16;;;;;;;11.65;3.42;;;;;;;7.80;75.19;101498.81;4975591;28;20506;-63
2021/03/06 06:25:44;;;;;;;11.00;3.50;;;;;;;8.02;75.15;101504.44;4971586;28;20101;-68
2021/03/06 06:28:18;;;;;;;9.60;3.28;;;;;;;7.81;75.87;101510.03;4969247;28;20627;-65
2021/03/06 06:31:10;;;;;;;18.52;4.53;;;;;;;7.86;75.19;101503.88;4975841;28;20043;-69
2021/03/06 06:33:38;;;;;;;9.32;3.38;;;;;;;7.93;75.31;101504.59;4973652;28;20579;-69
2021/03/06 06:36:04;;;;;;;5.03;3.25;;;;;;;7.93;74.07;101524.53;4975098;28;20045;-67
2021/03/06 06:38:42;;;;;;;8.23;3.88;;;;;;;7.99;73.94;101527.00;4975670;28;20054;-71
2021/03/06 06:41:09;;;;;;;8.98;4.18;;;;;;;7.92;73.49;101525.41;4973698;28;20054;-70
2021/03/06 06:43:35;;;;;;;10.45;4.28;;;;;;;7.92;73.84;101535.78;4975549;28;20464;-69
2021/03/06 06:46:02;;;;;;;15.15;5.30;;;;;;;7.84;73.46;101525.56;4975669;28;20054;-70
2021/03/06 06:48:29;;;;;;;11.27;4.55;;;;;;;7.75;73.86;101552.53;4975625;28;20043;-69
2021/03/06 06:51:11;;;;;;;8.98;5.00;;;;;;;7.64;73.85;101549.28;4974811;28;20038;-71
2021/03/06 06:53:37;;;;;;;7.93;3.55;;;;;;;7.93;73.80;101540.94;4975664;28;20266;-70
2021/03/06 06:56:23;;;;;;;6.93;4.13;;;;;;;7.84;72.96;101567.97;4975321;28;20071;-70
2021/03/06 06:58:50;;;;;;;10.07;5.15;;;;;;;7.89;72.88;101552.31;4975468;28;20130;-71
2021/03/06 07:01:33;;;;;;;9.48;4.30;;;;;;;7.96;73.11;101561.69;4974757;28;20054;-70
2021/03/06 07:04:05;;;;;;;9.10;3.70;;;;;;;7.83;72.44;101566.25;4974898;28;20501;-65
2021/03/06 07:06:32;;;;;;;6.05;3.08;;;;;;;7.88;72.42;101564.44;4974606;28;20047;-71
2021/03/06 07:09:09;;;;;;;6.55;3.08;;;;;;;7.72;72.50;101588.06;4975291;28;20519;-69
2021/03/06 07:11:36;;;;;;;12.00;5.18;;;;;;;7.75;72.86;101577.63;4975168;28;20098;-71
2021/03/06 07:14:03;;;;;;;8.18;3.95;;;;;;;7.77;72.52;101589.69;4968850;28;20477;-67
2021/03/06 07:16:58;;;;;;;8.80;3.42;;;;;;;7.79;72.75;101582.75;4970314;28;20122;-70
2021/03/06 07:19:28;;;;;;;6.43;3.50;;;;;;;7.64;73.68;101593.38;4973213;28;20046;-69
2021/03/06 07:21:54;;;;;;;10.05;4.03;;;;;;;7.63;73.54;101602.06;4973013;28;20452;-70
2021/03/06 07:24:20;;;;;;;12.55;3.85;;;;;;;7.82;73.32;101600.84;4972521;28;20038;-67
2021/03/06 07:26:51;;;;;;;9.20;4.20;;;;;;;7.90;72.87;101603.34;4976042;28;20378;-70
2021/03/06 07:29:22;;;;;;;12.45;4.22;;;;;;;7.80;73.53;101592.25;4966803;28;20047;-66
2021/03/06 07:31:53;;;;;;;12.55;4.45;;;;;;;7.73;73.66;101610.56;4970247;28;20560;-67
2021/03/06 07:34:24;;;;;;;9.38;4.15;;;;;;;7.71;73.30;101614.91;4970257;28;20069;-70
2021/03/06 07:37:12;;;;;;;11.20;4.28;;;;;;;7.66;73.72;101620.16;4971303;28;20046;-67
2021/03/06 07:39:43;;;;;;;8.15;3.72;;;;;;;7.83;73.97;101614.72;4969111;28;20043;-70
2021/03/06 07:42:30;;;;;;;11.13;4.40;;;;;;;7.72;74.55;101630.44;4973306;28;20070;-67
2021/03/06 07:44:57;;;;;;;21.30;7.38;;;;;;;7.81;74.06;101650.22;4972470;28;20050;-69
2021/03/06 07:47:28;;;;;;;7.97;4.65;;;;;;;7.77;74.04;101644.22;4973392;28;20065;-68
2021/03/06 07:49:58;;;;;;;8.50;4.50;;;;;;;7.99;74.14;101644.75;4969296;28;20047;-69
2021/03/06 07:52:26;;;;;;;13.02;5.32;;;;;;;8.11;73.14;101643.66;4970147;28;20050;-70
2021/03/06 07:54:54;;;;;;;9.45;5.35;;;;;;;8.03;73.50;101646.38;4971525;28;20066;-70
2021/03/06 07:57:20;;;;;;;15.13;4.70;;;;;;;8.06;73.48;101655.88;4972809;28;20134;-67
2021/03/06 07:59:50;;;;;;;19.20;6.85;;;;;;;7.88;74.36;101657.91;4972063;28;20089;-66
2021/03/06 08:02:32;;;;;;;11.43;6.22;;;;;;;7.83;74.52;101661.47;4972051;28;20047;-67
2021/03/06 08:05:27;;;;;;;12.13;5.03;;;;;;;8.06;74.05;101666.25;4968658;28;20073;-66
2021/03/06 08:07:53;;;;;;;9.15;5.38;;;;;;;7.86;74.31;101670.03;4970093;28;20497;-66
2021/03/06 08:10:19;;;;;;;13.57;7.30;;;;;;;7.96;74.06;101670.75;4970833;28;20040;-67
2021/03/06 08:12:46;;;;;;;10.23;5.43;;;;;;;7.90;74.43;101673.44;4969963;28;20138;-63
2021/03/06 08:15:27;;;;;;;15.15;5.18;;;;;;;8.10;74.04;101673.13;4944761;28;20125;-70
2021/03/06 08:17:55;;;;;;;9.07;5.57;;;;;;;7.77;75.10;101680.56;4962749;28;20525;-68
2021/03/06 08:20:28;;;;;;;8.70;6.15;;;;;;;7.84;74.35;101676.16;4951165;28;20490;-63
2021/03/06 08:23:17;;;;;;;21.13;8.80;;;;;;;7.87;75.05;101682.13;4951396;28;20047;-73
2021/03/06 08:25:44;;;;;;;9.80;6.07;;;;;;;7.76;75.07;101684.03;4951711;29;20071;-63
2021/03/06 08:28:27;;;;;;;12.32;7.40;;;;;;;7.82;75.09;101694.31;4952706;28;20051;-66
2021/03/06 08:30:54;;;;;;;9.95;6.65;;;;;;;7.76;74.67;101694.41;4952537;28;20098;-69
2021/03/06 08:33:23;;;;;;;12.98;6.65;;;;;;;7.83;75.19;101698.66;4954700;28;20055;-69
2021/03/06 08:35:49;;;;;;;9.45;6.07;;;;;;;7.84;75.06;101696.91;4952679;28;20061;-72
2021/03/06 08:38:30;;;;;;;18.27;6.25;;;;;;;8.05;74.45;101711.28;4952834;28;20114;-68
2021/03/06 08:40:57;;;;;;;10.40;6.40;;;;;;;7.88;75.05;101709.81;4949976;28;20041;-71
2021/03/06 08:43:24;;;;;;;16.67;6.15;;;;;;;8.03;74.54;101703.50;4952212;28;20043;-73
2021/03/06 08:45:51;;;;;;;9.90;5.63;;;;;;;8.05;74.49;101711.28;4952490;28;20126;-69
2021/03/06 08:48:22;;;;;;;11.95;5.70;;;;;;;8.12;74.42;101702.50;4952312;28;20071;-67
2021/03/06 08:50:49;;;;;;;9.98;5.55;;;;;;;8.05;74.35;101714.75;4952703;28;20043;-65
2021/03/06 08:53:17;;;;;;;12.13;7.40;;;;;;;8.00;73.70;101710.50;4951083;28;20067;-66
2021/03/06 08:55:45;;;;;;;10.50;6.50;;;;;;;7.98;73.93;101720.91;4952507;28;20050;-66
2021/03/06 08:58:16;;;;;;;12.65;7.07;;;;;;;8.05;73.38;101719.09;4952282;28;20490;-65
2021/03/06 09:00:51;;;;;;;17.27;6.60;;;;;;;8.05;73.39;101716.50;4951215;28;20047;-65
2021/03/06 09:03:24;;;;;;;15.25;6.30;;;;;;;8.14;73.24;101731.91;4950932;28;20062;-67
2021/03/06 09:05:56;;;;;;;13.95;7.45;;;;;;;7.94;74.18;101723.59;4949449;28;20122;-66
2021/03/06 09:08:24;;;;;;;12.55;6.15;;;;;;;7.70;75.03;101724.81;4950157;28;20438;-66
2021/03/06 09:10:59;;;;;;;13.48;6.45;;;;;;;7.96;74.19;101727.88;4949623;28;20141;-66
2021/03/06 09:13:31;;;;;;;12.73;5.70;;;;;;;7.72;75.35;101734.28;4949464;28;20051;-64
2021/03/06 09:16:00;;;;;;;10.43;5.00;;;;;;;7.80;75.25;101734.19;4949160;28;20047;-66
2021/03/06 09:18:34;;;;;;;11.82;7.72;;;;;;;7.71;76.61;101732.56;4950003;28;20078;-66
2021/03/06 09:21:03;;;;;;;11.43;5.20;;;;;;;7.78;76.23;101731.63;4950507;28;20123;-69
2021/03/06 09:23:36;;;;;;;13.45;5.95;;;;;;;7.83;75.92;101742.78;4950284;28;20298;-67
2021/03/06 09:26:09;;;;;;;8.98;5.10;;;;;;;7.84;75.89;101739.31;4949087;28;20135;-64
2021/03/06 09:28:36;;;;;;;10.20;5.82;;;;;;;7.54;77.53;101740.59;4948697;28;20191;-65
2021/03/06 09:31:09;;;;;;;15.10;5.85;;;;;;;7.84;76.99;101739.31;4948251;28;20073;-68
2021/03/06 09:33:38;;;;;;;;;;;;;;;7.70;76.92;101745.56;4947898;28;21543;-65
2021/03/06 09:36:13;;;;;;;17.95;6.15;;;;;;;7.87;76.77;101749.63;4950528;28;19934;-65
2021/03/06 09:38:54;;;;;;;12.07;6.22;;;;;;;7.98;76.79;101748.59;4947927;28;20126;-66
2021/03/06 09:41:22;;;;;;;9.82;6.07;;;;;;;7.79;76.99;101745.44;4950272;28;20122;-67
2021/03/06 09:43:50;;;;;;;14.38;6.55;;;;;;;7.65;77.30;101748.22;4950492;28;20393;-66
2021/03/06 09:46:20;;;;;;;16.33;7.90;;;;;;;7.70;77.59;101745.56;4952556;28;20150;-68
2021/03/06 09:48:49;;;;;;;16.40;7.55;;;;;;;8.00;76.92;101752.06;4951736;28;20118;-68
2021/03/06 09:51:16;;;;;;;12.73;6.80;;;;;;;7.76;77.18;101761.06;4952260;28;20039;-68
2021/03/06 09:53:53;;;;;;;7.95;5.18;;;;;;;7.68;77.76;101752.53;4952273;28;20486;-68
2021/03/06 09:56:19;;;;;;;15.32;7.05;;;;;;;7.53;78.18;101754.44;4955441;28;20042;-68
2021/03/06 09:58:45;;;;;;;7.90;5.03;;;;;;;7.74;77.59;101762.81;4954492;28;20142;-68
2021/03/06 10:01:18;;;;;;;19.52;5.95;;;;;;;7.48;77.07;101766.63;4956979;28;20566;-66
2021/03/06 10:03:49;;;;;;;12.52;4.90;;;;;;;7.60;77.16;101760.41;4955549;28;20066;-70
2021/03/06 10:06:23;;;;;;;18.50;5.13;;;;;;;7.52;76.33;101755.34;4956571;28;20047;-70
2021/03/06 10:08:59;;;;;;;5.97;4.43;;;;;;;7.44;73.33;101764.94;4954203;28;20051;-70
2021/03/06 10:11:28;;;;;;;8.35;4.55;;;;;;;7.55;73.84;101752.69;4956301;28;20074;-70
2021/03/06 10:13:55;;;;;;;7.85;5.10;;;;;;;7.57;72.84;101758.72;4955858;28;20049;-70
2021/03/06 10:16:22;;;;;;;9.63;3.92;;;;;;;7.63;72.94;101760.38;4955048;28;20051;-69
2021/03/06 10:18:50;;;;;;;6.25;4.68;;;;;;;7.70;73.64;101751.63;4954949;28;20494;-73
2021/03/06 10:21:21;;;;;;;19.83;4.97;;;;;;;7.57;72.77;101789.88;4955863;28;20126;-70
2021/03/06 10:23:49;;;;;;;10.50;5.20;;;;;;;7.73;73.48;101759.38;4956574;28;20071;-71
2021/03/06 10:26:24;;;;;;;10.85;4.75;;;;;;;7.71;74.07;101774.09;4953436;28;20039;-70
2021/03/06 10:29:17;;;;;;;15.80;5.20;;;;;;;7.81;73.04;101770.50;4956747;28;20051;-66
2021/03/06 10:31:44;;;;;;;11.45;5.35;;;;;;;7.82;73.69;101769.59;4954382;28;20131;-71
2021/03/06 10:34:19;;;;;;;20.52;8.07;;;;;;;7.84;72.67;101775.66;4953334;28;20047;-68
2021/03/06 10:37:05;;;;;;;10.00;5.88;;;;;;;7.80;72.96;101776.56;4955199;28;20102;-70
2021/03/06 10:39:32;;;;;;;16.05;7.10;;;;;;;7.71;73.06;101778.44;4955104;28;20055;-70
2021/03/06 10:42:00;;;;;;;9.68;6.07;;;;;;;7.65;72.69;101784.56;4955537;28;20053;-71
2021/03/06 10:44:40;;;;;;;10.50;6.55;;;;;;;7.83;72.64;101784.31;4954450;28;20461;-69
2021/03/06 10:47:06;;;;;;;9.70;6.47;;;;;;;7.84;72.10;101786.03;4956255;28;20039;-72
2021/03/06 10:49:45;;;;;;;12.13;6.13;;;;;;;7.78;72.02;101790.47;4956144;28;20054;-73
2021/03/06 10:52:26;;;;;;;14.30;6.80;;;;;;;7.80;72.73;101802.53;4954100;29;20043;-73
2021/03/06 10:54:55;;;;;;;11.05;6.35;;;;;;;7.82;72.26;101795.56;4953115;28;20122;-73
2021/03/06 10:57:22;;;;;;;11.48;7.22;;;;;;;7.85;71.66;101798.13;4954865;28;20093;-70
2021/03/06 10:59:48;;;;;;;16.83;7.72;;;;;;;7.96;69.87;101803.19;4955098;28;20433;-69
2021/03/06 11:02:30;;;;;;;18.40;8.50;;;;;;;7.98;70.29;101801.41;4954860;28;20119;-71
2021/03/06 11:05:17;;;;;;;15.65;7.90;;;;;;;7.86;69.80;101802.44;4954345;28;20043;-70
2021/03/06 11:07:43;;;;;;;12.73;8.20;;;;;;;7.68;69.57;101801.84;4955223;28;20043;-70
2021/03/06 11:10:10;;;;;;;14.07;6.78;;;;;;;7.90;69.85;101805.00;4951876;28;20064;-71
2021/03/06 11:12:37;;;;;;;12.85;7.40;;;;;;;7.81;69.98;101805.97;4951964;28;20098;-71
2021/03/06 11:15:15;;;;;;;10.23;7.35;;;;;;;7.78;70.56;101804.31;4949613;28;20051;-70
2021/03/06 11:17:51;;;;;;;14.35;8.32;;;;;;;8.10;69.93;101800.38;4952542;28;20047;-73
2021/03/06 11:20:18;;;;;;;11.00;8.05;;;;;;;8.25;70.16;101804.47;4946405;28;20051;-74
2021/03/06 11:22:46;;;;;;;18.58;9.27;;;;;;;8.14;69.45;101799.44;4950881;28;20101;-70
2021/03/06 11:25:15;;;;;;;12.25;6.97;;;;;;;7.95;68.81;101798.88;4948723;28;20051;-74
2021/03/06 11:27:59;;;;;;;10.95;6.07;;;;;;;7.98;68.57;101796.22;4952987;28;20055;-74
2021/03/06 11:30:27;;;;;;;10.50;7.07;;;;;;;8.05;68.93;101795.25;4952290;28;20070;-73
2021/03/06 11:32:54;;;;;;;10.50;7.15;;;;;;;8.26;68.90;101796.66;4953046;28;20075;-75
2021/03/06 11:35:22;;;;;;;15.43;6.80;;;;;;;8.25;69.08;101791.47;4951753;28;20041;-70
2021/03/06 11:37:50;;;;;;;20.98;10.05;;;;;;;8.14;69.00;101794.25;4945197;28;20130;-70
2021/03/06 11:40:18;;;;;;;15.00;7.55;;;;;;;8.04;68.08;101790.06;4948110;29;20070;-71